sensor_id;sensor_type;location;lat;lon;timestamp;pressure;altitude;pressure_sealevel;temperature;humidity
18436;BME280;9346;52.006;4.720;2023-03-14T00:00:06;98712.72;;;11.83;100.00
18436;BME280;9346;52.006;4.720;2023-03-14T00:02:35;98723.41;;;11.84;100.00
18436;BME280;9346;52.006;4.720;2023-03-14T00:05:04;98728.31;;;11.79;100.00
18436;BME280;9346;52.006;4.720;2023-03-14T00:07:32;98713.22;;;11.76;100.00
18436;BME280;9346;52.006;4.720;2023-03-14T00:10:04;98708.75;;;11.72;100.00
18436;BME280;9346;52.006;4.720;2023-03-14T00:12:31;98718.00;;;11.67;100.00
18436;BME280;9346;52.006;4.720;2023-03-14T00:14:58;98721.75;;;11.63;100.00
18436;BME280;9346;52.006;4.720;2023-03-14T00:17:28;98718.66;;;11.64;100.00
18436;BME280;9346;52.006;4.720;2023-03-14T00:19:57;98710.72;;;11.63;100.00
18436;BME280;9346;52.006;4.720;2023-03-14T00:22:29;98715.91;;;11.64;100.00
18436;BME280;9346;52.006;4.720;2023-03-14T00:24:56;98718.19;;;11.62;100.00
18436;BME280;9346;52.006;4.720;2023-03-14T00:27:23;98724.00;;;11.61;100.00
18436;BME280;9346;52.006;4.720;2023-03-14T00:29:50;98710.88;;;11.58;100.00
18436;BME280;9346;52.006;4.720;2023-03-14T00:32:17;98719.13;;;11.58;100.00
18436;BME280;9346;52.006;4.720;2023-03-14T00:34:44;98715.75;;;11.52;100.00
18436;BME280;9346;52.006;4.720;2023-03-14T00:37:13;98725.84;;;11.48;100.00
18436;BME280;9346;52.006;4.720;2023-03-14T00:39:40;98726.16;;;11.47;100.00
18436;BME280;9346;52.006;4.720;2023-03-14T00:42:07;98724.84;;;11.44;100.00
18436;BME280;9346;52.006;4.720;2023-03-14T00:44:34;98734.16;;;11.40;100.00
18436;BME280;9346;52.006;4.720;2023-03-14T00:47:01;98724.72;;;11.41;100.00
18436;BME280;9346;52.006;4.720;2023-03-14T00:49:28;98738.84;;;11.39;100.00
18436;BME280;9346;52.006;4.720;2023-03-14T00:51:56;98742.09;;;11.32;100.00
18436;BME280;9346;52.006;4.720;2023-03-14T00:54:24;98751.00;;;11.29;100.00
18436;BME280;9346;52.006;4.720;2023-03-14T00:56:52;98750.22;;;11.29;100.00
18436;BME280;9346;52.006;4.720;2023-03-14T00:59:18;98752.47;;;11.27;100.00
18436;BME280;9346;52.006;4.720;2023-03-14T01:01:45;98755.56;;;11.25;100.00
18436;BME280;9346;52.006;4.720;2023-03-14T01:04:13;98750.06;;;11.25;100.00
18436;BME280;9346;52.006;4.720;2023-03-14T01:06:40;98745.19;;;11.22;100.00
18436;BME280;9346;52.006;4.720;2023-03-14T01:09:07;98748.78;;;11.23;100.00
18436;BME280;9346;52.006;4.720;2023-03-14T01:11:36;98743.91;;;11.20;100.00
18436;BME280;9346;52.006;4.720;2023-03-14T01:14:03;98737.25;;;11.21;100.00
18436;BME280;9346;52.006;4.720;2023-03-14T01:16:33;98738.75;;;11.18;100.00
18436;BME280;9346;52.006;4.720;2023-03-14T01:19:01;98739.06;;;11.17;100.00
18436;BME280;9346;52.006;4.720;2023-03-14T01:21:31;98742.00;;;11.12;100.00
18436;BME280;9346;52.006;4.720;2023-03-14T01:24:01;98742.34;;;11.10;100.00
18436;BME280;9346;52.006;4.720;2023-03-14T01:26:30;98739.75;;;11.05;100.00
18436;BME280;9346;52.006;4.720;2023-03-14T01:28:59;98749.16;;;11.04;100.00
18436;BME280;9346;52.006;4.720;2023-03-14T01:31:27;98738.47;;;11.03;100.00
18436;BME280;9346;52.006;4.720;2023-03-14T01:33:54;98735.53;;;10.99;100.00
18436;BME280;9346;52.006;4.720;2023-03-14T01:36:21;98734.75;;;10.99;100.00
18436;BME280;9346;52.006;4.720;2023-03-14T01:38:48;98741.69;;;10.96;100.00
18436;BME280;9346;52.006;4.720;2023-03-14T01:41:17;98737.84;;;10.97;100.00
18436;BME280;9346;52.006;4.720;2023-03-14T01:43:45;98722.09;;;10.98;100.00
18436;BME280;9346;52.006;4.720;2023-03-14T01:46:19;98722.09;;;10.98;100.00
18436;BME280;9346;52.006;4.720;2023-03-14T01:48:52;98728.41;;;10.98;100.00
18436;BME280;9346;52.006;4.720;2023-03-14T01:51:25;98727.59;;;10.98;100.00
18436;BME280;9346;52.006;4.720;2023-03-14T01:53:59;98723.25;;;10.97;100.00
18436;BME280;9346;52.006;4.720;2023-03-14T01:56:30;98732.00;;;10.99;100.00
18436;BME280;9346;52.006;4.720;2023-03-14T01:58:58;98724.84;;;10.98;100.00
18436;BME280;9346;52.006;4.720;2023-03-14T02:01:29;98724.19;;;11.01;100.00
18436;BME280;9346;52.006;4.720;2023-03-14T02:03:59;98715.94;;;11.01;100.00
18436;BME280;9346;52.006;4.720;2023-03-14T02:06:33;98721.44;;;11.01;100.00
18436;BME280;9346;52.006;4.720;2023-03-14T02:09:02;98708.16;;;11.03;100.00
18436;BME280;9346;52.006;4.720;2023-03-14T02:11:30;98711.25;;;11.01;100.00
18436;BME280;9346;52.006;4.720;2023-03-14T02:13:58;98698.94;;;10.99;100.00
18436;BME280;9346;52.006;4.720;2023-03-14T02:16:26;98699.59;;;10.96;100.00
18436;BME280;9346;52.006;4.720;2023-03-14T02:18:55;98696.34;;;10.94;100.00
18436;BME280;9346;52.006;4.720;2023-03-14T02:21:29;98694.25;;;10.91;100.00
18436;BME280;9346;52.006;4.720;2023-03-14T02:24:06;98694.91;;;10.88;100.00
18436;BME280;9346;52.006;4.720;2023-03-14T02:26:38;98693.63;;;10.85;100.00
18436;BME280;9346;52.006;4.720;2023-03-14T02:29:09;98692.00;;;10.84;100.00
18436;BME280;9346;52.006;4.720;2023-03-14T02:31:36;98681.66;;;10.81;100.00
18436;BME280;9346;52.006;4.720;2023-03-14T02:34:03;98683.59;;;10.81;100.00
18436;BME280;9346;52.006;4.720;2023-03-14T02:36:31;98684.22;;;10.78;100.00
18436;BME280;9346;52.006;4.720;2023-03-14T02:39:06;98687.63;;;10.75;100.00
18436;BME280;9346;52.006;4.720;2023-03-14T02:41:35;98694.75;;;10.76;100.00
18436;BME280;9346;52.006;4.720;2023-03-14T02:44:02;98685.69;;;10.75;100.00
18436;BME280;9346;52.006;4.720;2023-03-14T02:46:31;98690.72;;;10.73;100.00
18436;BME280;9346;52.006;4.720;2023-03-14T02:49:00;98682.31;;;10.70;100.00
18436;BME280;9346;52.006;4.720;2023-03-14T02:51:28;98689.75;;;10.69;100.00
18436;BME280;9346;52.006;4.720;2023-03-14T02:53:56;98679.06;;;10.68;100.00
18436;BME280;9346;52.006;4.720;2023-03-14T02:56:23;98681.50;;;10.69;100.00
18436;BME280;9346;52.006;4.720;2023-03-14T02:58:50;98677.94;;;10.69;100.00
18436;BME280;9346;52.006;4.720;2023-03-14T03:01:17;98681.34;;;10.66;100.00
18436;BME280;9346;52.006;4.720;2023-03-14T03:03:45;98683.63;;;10.64;100.00
18436;BME280;9346;52.006;4.720;2023-03-14T03:06:12;98687.81;;;10.61;100.00
18436;BME280;9346;52.006;4.720;2023-03-14T03:08:39;98685.38;;;10.60;100.00
18436;BME280;9346;52.006;4.720;2023-03-14T03:11:07;98673.59;;;10.59;100.00
18436;BME280;9346;52.006;4.720;2023-03-14T03:13:34;98676.66;;;10.58;100.00
18436;BME280;9346;52.006;4.720;2023-03-14T03:16:01;98677.44;;;10.58;100.00
18436;BME280;9346;52.006;4.720;2023-03-14T03:18:28;98666.44;;;10.58;100.00
18436;BME280;9346;52.006;4.720;2023-03-14T03:20:59;98667.75;;;10.61;100.00
18436;BME280;9346;52.006;4.720;2023-03-14T03:23:26;98662.25;;;10.61;100.00
18436;BME280;9346;52.006;4.720;2023-03-14T03:25:54;98665.78;;;10.61;100.00
18436;BME280;9346;52.006;4.720;2023-03-14T03:28:21;98666.28;;;10.63;100.00
18436;BME280;9346;52.006;4.720;2023-03-14T03:30:48;98652.19;;;10.65;100.00
18436;BME280;9346;52.006;4.720;2023-03-14T03:33:14;98653.47;;;10.67;100.00
18436;BME280;9346;52.006;4.720;2023-03-14T03:35:43;98657.03;;;10.68;100.00
18436;BME280;9346;52.006;4.720;2023-03-14T03:38:13;98654.28;;;10.68;100.00
18436;BME280;9346;52.006;4.720;2023-03-14T03:40:40;98661.41;;;10.69;100.00
18436;BME280;9346;52.006;4.720;2023-03-14T03:43:07;98655.56;;;10.70;100.00
18436;BME280;9346;52.006;4.720;2023-03-14T03:45:34;98658.50;;;10.74;100.00
18436;BME280;9346;52.006;4.720;2023-03-14T03:48:01;98647.00;;;10.72;100.00
18436;BME280;9346;52.006;4.720;2023-03-14T03:50:28;98651.34;;;10.73;100.00
18436;BME280;9346;52.006;4.720;2023-03-14T03:52:55;98658.00;;;10.72;100.00
18436;BME280;9346;52.006;4.720;2023-03-14T03:55:24;98656.06;;;10.72;100.00
18436;BME280;9346;52.006;4.720;2023-03-14T03:57:51;98650.88;;;10.71;100.00
18436;BME280;9346;52.006;4.720;2023-03-14T04:00:19;98651.69;;;10.71;100.00
18436;BME280;9346;52.006;4.720;2023-03-14T04:02:46;98660.75;;;10.72;100.00
18436;BME280;9346;52.006;4.720;2023-03-14T04:05:13;98655.25;;;10.72;100.00
18436;BME280;9346;52.006;4.720;2023-03-14T04:07:40;98654.59;;;10.75;100.00
18436;BME280;9346;52.006;4.720;2023-03-14T04:10:08;98656.06;;;10.72;100.00
18436;BME280;9346;52.006;4.720;2023-03-14T04:12:37;98651.84;;;10.75;100.00
18436;BME280;9346;52.006;4.720;2023-03-14T04:15:05;98651.84;;;10.75;100.00
18436;BME280;9346;52.006;4.720;2023-03-14T04:17:33;98652.50;;;10.72;100.00
18436;BME280;9346;52.006;4.720;2023-03-14T04:20:00;98650.56;;;10.72;100.00
18436;BME280;9346;52.006;4.720;2023-03-14T04:22:27;98653.66;;;10.71;100.00
18436;BME280;9346;52.006;4.720;2023-03-14T04:24:54;98638.72;;;10.72;100.00
18436;BME280;9346;52.006;4.720;2023-03-14T04:27:21;98653.00;;;10.74;100.00
18436;BME280;9346;52.006;4.720;2023-03-14T04:29:50;98659.94;;;10.71;100.00
18436;BME280;9346;52.006;4.720;2023-03-14T04:32:17;98665.81;;;10.70;100.00
18436;BME280;9346;52.006;4.720;2023-03-14T04:34:44;98657.03;;;10.68;100.00
18436;BME280;9346;52.006;4.720;2023-03-14T04:37:11;98667.25;;;10.67;100.00
18436;BME280;9346;52.006;4.720;2023-03-14T04:39:39;98659.31;;;10.66;100.00
18436;BME280;9346;52.006;4.720;2023-03-14T04:42:06;98663.03;;;10.61;100.00
18436;BME280;9346;52.006;4.720;2023-03-14T04:44:33;98651.06;;;10.57;100.00
18436;BME280;9346;52.006;4.720;2023-03-14T04:47:02;98660.78;;;10.55;100.00
18436;BME280;9346;52.006;4.720;2023-03-14T04:49:29;98662.28;;;10.52;100.00
18436;BME280;9346;52.006;4.720;2023-03-14T04:51:56;98664.19;;;10.52;100.00
18436;BME280;9346;52.006;4.720;2023-03-14T04:54:23;98659.34;;;10.49;100.00
18436;BME280;9346;52.006;4.720;2023-03-14T04:56:51;98662.25;;;10.44;100.00
18436;BME280;9346;52.006;4.720;2023-03-14T04:59:18;98660.63;;;10.43;100.00
18436;BME280;9346;52.006;4.720;2023-03-14T05:01:46;98662.75;;;10.37;100.00
18436;BME280;9346;52.006;4.720;2023-03-14T05:04:15;98650.13;;;10.36;100.00
18436;BME280;9346;52.006;4.720;2023-03-14T05:06:42;98665.84;;;10.36;100.00
18436;BME280;9346;52.006;4.720;2023-03-14T05:09:09;98661.63;;;10.38;100.00
18436;BME280;9346;52.006;4.720;2023-03-14T05:11:37;98659.34;;;10.40;100.00
18436;BME280;9346;52.006;4.720;2023-03-14T05:14:04;98657.44;;;10.41;100.00
18436;BME280;9346;52.006;4.720;2023-03-14T05:16:30;98646.41;;;10.41;100.00
18436;BME280;9346;52.006;4.720;2023-03-14T05:18:57;98654.81;;;10.36;100.00
18436;BME280;9346;52.006;4.720;2023-03-14T05:21:28;98642.84;;;10.32;100.00
18436;BME280;9346;52.006;4.720;2023-03-14T05:23:55;98649.00;;;10.29;100.00
18436;BME280;9346;52.006;4.720;2023-03-14T05:26:22;98651.25;;;10.27;100.00
18436;BME280;9346;52.006;4.720;2023-03-14T05:28:49;98648.06;;;10.25;100.00
18436;BME280;9346;52.006;4.720;2023-03-14T05:31:16;98643.34;;;10.25;100.00
18436;BME280;9346;52.006;4.720;2023-03-14T05:33:43;98655.81;;;10.23;100.00
18436;BME280;9346;52.006;4.720;2023-03-14T05:36:10;98640.44;;;10.22;100.00
18436;BME280;9346;52.006;4.720;2023-03-14T05:38:39;98644.31;;;10.21;100.00
18436;BME280;9346;52.006;4.720;2023-03-14T05:41:06;98650.13;;;10.19;100.00
18436;BME280;9346;52.006;4.720;2023-03-14T05:43:33;98644.47;;;10.16;100.00
18436;BME280;9346;52.006;4.720;2023-03-14T05:46:00;98683.00;;;10.16;100.00
18436;BME280;9346;52.006;4.720;2023-03-14T05:48:26;98717.63;;;10.17;100.00
18436;BME280;9346;52.006;4.720;2023-03-14T05:50:57;98730.88;;;10.15;100.00
18436;BME280;9346;52.006;4.720;2023-03-14T05:53:25;98742.34;;;10.08;100.00
18436;BME280;9346;52.006;4.720;2023-03-14T05:55:56;98743.75;;;9.97;100.00
18436;BME280;9346;52.006;4.720;2023-03-14T05:58:23;98738.72;;;9.82;100.00
18436;BME280;9346;52.006;4.720;2023-03-14T06:00:50;98743.97;;;9.62;100.00
18436;BME280;9346;52.006;4.720;2023-03-14T06:03:17;98748.63;;;9.53;100.00
18436;BME280;9346;52.006;4.720;2023-03-14T06:05:44;98758.28;;;9.42;100.00
18436;BME280;9346;52.006;4.720;2023-03-14T06:08:11;98764.84;;;9.32;100.00
18436;BME280;9346;52.006;4.720;2023-03-14T06:10:38;98768.53;;;9.28;100.00
18436;BME280;9346;52.006;4.720;2023-03-14T06:13:08;98779.50;;;9.19;100.00
18436;BME280;9346;52.006;4.720;2023-03-14T06:15:35;98785.91;;;9.14;100.00
18436;BME280;9346;52.006;4.720;2023-03-14T06:18:02;98800.47;;;9.15;100.00
18436;BME280;9346;52.006;4.720;2023-03-14T06:20:29;98797.41;;;9.17;100.00
18436;BME280;9346;52.006;4.720;2023-03-14T06:22:56;98794.16;;;9.14;100.00
18436;BME280;9346;52.006;4.720;2023-03-14T06:25:22;98808.03;;;9.09;100.00
18436;BME280;9346;52.006;4.720;2023-03-14T06:27:50;98808.97;;;9.05;100.00
18436;BME280;9346;52.006;4.720;2023-03-14T06:30:18;98814.25;;;9.01;100.00
18436;BME280;9346;52.006;4.720;2023-03-14T06:32:46;98822.03;;;8.99;100.00
18436;BME280;9346;52.006;4.720;2023-03-14T06:35:13;98834.09;;;8.98;100.00
18436;BME280;9346;52.006;4.720;2023-03-14T06:37:40;98832.31;;;8.94;100.00
18436;BME280;9346;52.006;4.720;2023-03-14T06:40:09;98841.50;;;8.89;100.00
18436;BME280;9346;52.006;4.720;2023-03-14T06:42:43;98852.06;;;8.82;100.00
18436;BME280;9346;52.006;4.720;2023-03-14T06:45:10;98861.25;;;8.78;100.00
18436;BME280;9346;52.006;4.720;2023-03-14T06:47:39;98866.84;;;8.73;100.00
18436;BME280;9346;52.006;4.720;2023-03-14T06:50:07;98873.47;;;8.72;100.00
18436;BME280;9346;52.006;4.720;2023-03-14T06:52:34;98884.75;;;8.70;100.00
18436;BME280;9346;52.006;4.720;2023-03-14T06:55:01;98897.34;;;8.71;100.00
18436;BME280;9346;52.006;4.720;2023-03-14T06:57:29;98912.19;;;8.70;100.00
18436;BME280;9346;52.006;4.720;2023-03-14T06:59:56;98918.00;;;8.69;100.00
18436;BME280;9346;52.006;4.720;2023-03-14T07:02:23;98929.88;;;8.64;100.00
18436;BME280;9346;52.006;4.720;2023-03-14T07:04:51;98927.16;;;8.64;100.00
18436;BME280;9346;52.006;4.720;2023-03-14T07:07:18;98931.31;;;8.62;100.00
18436;BME280;9346;52.006;4.720;2023-03-14T07:09:45;98950.53;;;8.62;100.00
18436;BME280;9346;52.006;4.720;2023-03-14T07:12:12;98953.28;;;8.62;100.00
18436;BME280;9346;52.006;4.720;2023-03-14T07:14:39;98959.69;;;8.57;100.00
18436;BME280;9346;52.006;4.720;2023-03-14T07:17:06;98965.47;;;8.56;100.00
18436;BME280;9346;52.006;4.720;2023-03-14T07:19:33;98981.94;;;8.56;100.00
18436;BME280;9346;52.006;4.720;2023-03-14T07:22:02;98994.22;;;8.58;100.00
18436;BME280;9346;52.006;4.720;2023-03-14T07:24:29;98996.75;;;8.55;100.00
18436;BME280;9346;52.006;4.720;2023-03-14T07:26:56;98994.31;;;8.53;100.00
18436;BME280;9346;52.006;4.720;2023-03-14T07:29:23;99019.22;;;8.57;100.00
18436;BME280;9346;52.006;4.720;2023-03-14T07:31:50;99015.78;;;8.51;100.00
18436;BME280;9346;52.006;4.720;2023-03-14T07:34:17;99026.84;;;8.46;100.00
18436;BME280;9346;52.006;4.720;2023-03-14T07:36:44;99030.69;;;8.45;100.00
18436;BME280;9346;52.006;4.720;2023-03-14T07:39:13;99041.16;;;8.43;100.00
18436;BME280;9346;52.006;4.720;2023-03-14T07:41:39;99048.06;;;8.41;100.00
18436;BME280;9346;52.006;4.720;2023-03-14T07:44:06;99052.72;;;8.40;100.00
18436;BME280;9346;52.006;4.720;2023-03-14T07:46:33;99070.03;;;8.41;100.00
18436;BME280;9346;52.006;4.720;2023-03-14T07:49:00;99081.00;;;8.41;100.00
18436;BME280;9346;52.006;4.720;2023-03-14T07:51:27;99098.16;;;8.46;100.00
18436;BME280;9346;52.006;4.720;2023-03-14T07:53:54;99107.53;;;8.45;100.00
18436;BME280;9346;52.006;4.720;2023-03-14T07:56:22;99124.06;;;8.40;100.00
18436;BME280;9346;52.006;4.720;2023-03-14T07:58:49;99131.44;;;8.26;100.00
18436;BME280;9346;52.006;4.720;2023-03-14T08:01:17;99142.63;;;8.11;100.00
18436;BME280;9346;52.006;4.720;2023-03-14T08:03:44;99143.38;;;7.98;100.00
18436;BME280;9346;52.006;4.720;2023-03-14T08:06:11;99167.03;;;7.94;100.00
18436;BME280;9346;52.006;4.720;2023-03-14T08:08:38;99176.72;;;7.87;100.00
18436;BME280;9346;52.006;4.720;2023-03-14T08:11:06;99186.13;;;7.81;100.00
18436;BME280;9346;52.006;4.720;2023-03-14T08:13:35;99190.06;;;7.75;100.00
18436;BME280;9346;52.006;4.720;2023-03-14T08:16:04;99211.03;;;7.66;100.00
18436;BME280;9346;52.006;4.720;2023-03-14T08:18:31;99213.03;;;7.60;100.00
18436;BME280;9346;52.006;4.720;2023-03-14T08:20:58;99224.69;;;7.47;100.00
18436;BME280;9346;52.006;4.720;2023-03-14T08:23:25;99237.59;;;7.42;100.00
18436;BME280;9346;52.006;4.720;2023-03-14T08:25:52;99250.72;;;7.45;100.00
18436;BME280;9346;52.006;4.720;2023-03-14T08:28:19;99265.25;;;7.45;100.00
18436;BME280;9346;52.006;4.720;2023-03-14T08:30:48;99285.47;;;7.49;100.00
18436;BME280;9346;52.006;4.720;2023-03-14T08:33:15;99299.91;;;7.55;100.00
18436;BME280;9346;52.006;4.720;2023-03-14T08:35:42;99293.41;;;7.51;100.00
18436;BME280;9346;52.006;4.720;2023-03-14T08:38:09;99315.13;;;7.42;100.00
18436;BME280;9346;52.006;4.720;2023-03-14T08:40:36;99319.28;;;7.40;100.00
18436;BME280;9346;52.006;4.720;2023-03-14T08:43:03;99335.41;;;7.41;100.00
18436;BME280;9346;52.006;4.720;2023-03-14T08:45:30;99338.19;;;7.36;100.00
18436;BME280;9346;52.006;4.720;2023-03-14T08:47:59;99356.25;;;7.37;100.00
18436;BME280;9346;52.006;4.720;2023-03-14T08:50:26;99357.09;;;7.38;100.00
18436;BME280;9346;52.006;4.720;2023-03-14T08:52:53;99378.41;;;7.41;100.00
18436;BME280;9346;52.006;4.720;2023-03-14T08:55:20;99370.97;;;7.46;100.00
18436;BME280;9346;52.006;4.720;2023-03-14T08:57:47;99366.63;;;7.40;100.00
18436;BME280;9346;52.006;4.720;2023-03-14T09:00:15;99380.91;;;7.37;100.00
18436;BME280;9346;52.006;4.720;2023-03-14T09:02:42;99384.16;;;7.44;100.00
18436;BME280;9346;52.006;4.720;2023-03-14T09:05:12;99404.41;;;7.43;100.00
18436;BME280;9346;52.006;4.720;2023-03-14T09:07:39;99416.13;;;7.49;100.00
18436;BME280;9346;52.006;4.720;2023-03-14T09:10:07;99421.63;;;7.49;100.00
18436;BME280;9346;52.006;4.720;2023-03-14T09:12:35;99425.19;;;7.49;100.00
18436;BME280;9346;52.006;4.720;2023-03-14T09:15:02;99440.50;;;7.50;100.00
18436;BME280;9346;52.006;4.720;2023-03-14T09:17:30;99441.03;;;7.52;100.00
18436;BME280;9346;52.006;4.720;2023-03-14T09:19:57;99450.59;;;7.55;100.00
18436;BME280;9346;52.006;4.720;2023-03-14T09:22:28;99456.34;;;7.58;100.00
18436;BME280;9346;52.006;4.720;2023-03-14T09:24:55;99466.72;;;7.61;100.00
18436;BME280;9346;52.006;4.720;2023-03-14T09:27:21;99485.34;;;7.64;100.00
18436;BME280;9346;52.006;4.720;2023-03-14T09:29:48;99489.16;;;7.63;100.00
18436;BME280;9346;52.006;4.720;2023-03-14T09:32:15;99507.25;;;7.64;100.00
18436;BME280;9346;52.006;4.720;2023-03-14T09:34:42;99513.03;;;7.63;100.00
18436;BME280;9346;52.006;4.720;2023-03-14T09:37:09;99519.63;;;7.57;100.00
18436;BME280;9346;52.006;4.720;2023-03-14T09:39:38;99530.03;;;7.60;100.00
18436;BME280;9346;52.006;4.720;2023-03-14T09:42:10;99546.97;;;7.67;100.00
18436;BME280;9346;52.006;4.720;2023-03-14T09:44:44;99559.25;;;7.69;100.00
18436;BME280;9346;52.006;4.720;2023-03-14T09:47:16;99569.72;;;7.67;100.00
18436;BME280;9346;52.006;4.720;2023-03-14T09:49:45;99592.72;;;7.66;100.00
18436;BME280;9346;52.006;4.720;2023-03-14T09:52:14;99609.59;;;7.45;100.00
18436;BME280;9346;52.006;4.720;2023-03-14T09:54:46;99600.69;;;7.19;100.00
18436;BME280;9346;52.006;4.720;2023-03-14T09:57:16;99606.78;;;7.06;100.00
18436;BME280;9346;52.006;4.720;2023-03-14T09:59:44;99621.59;;;6.95;100.00
18436;BME280;9346;52.006;4.720;2023-03-14T10:02:15;99620.00;;;6.84;100.00
18436;BME280;9346;52.006;4.720;2023-03-14T10:04:45;99632.06;;;6.83;100.00
18436;BME280;9346;52.006;4.720;2023-03-14T10:07:15;99644.66;;;6.89;100.00
18436;BME280;9346;52.006;4.720;2023-03-14T10:09:48;99657.78;;;6.87;100.00
18436;BME280;9346;52.006;4.720;2023-03-14T10:12:16;99663.78;;;6.94;100.00
18436;BME280;9346;52.006;4.720;2023-03-14T10:14:47;99677.97;;;7.06;100.00
18436;BME280;9346;52.006;4.720;2023-03-14T10:17:15;99684.53;;;7.10;100.00
18436;BME280;9346;52.006;4.720;2023-03-14T10:19:54;99693.28;;;7.12;100.00
18436;BME280;9346;52.006;4.720;2023-03-14T10:22:23;99708.03;;;7.21;100.00
18436;BME280;9346;52.006;4.720;2023-03-14T10:24:54;99706.38;;;7.20;100.00
18436;BME280;9346;52.006;4.720;2023-03-14T10:27:29;99725.56;;;7.25;100.00
18436;BME280;9346;52.006;4.720;2023-03-14T10:29:57;99723.06;;;7.34;100.00
18436;BME280;9346;52.006;4.720;2023-03-14T10:32:29;99752.88;;;7.40;100.00
18436;BME280;9346;52.006;4.720;2023-03-14T10:35:08;99756.72;;;7.44;100.00
18436;BME280;9346;52.006;4.720;2023-03-14T10:37:48;99778.91;;;7.43;100.00
18436;BME280;9346;52.006;4.720;2023-03-14T10:40:19;99787.94;;;7.43;100.00
18436;BME280;9346;52.006;4.720;2023-03-14T10:42:46;99779.75;;;7.38;100.00
18436;BME280;9346;52.006;4.720;2023-03-14T10:45:30;99786.31;;;7.37;100.00
18436;BME280;9346;52.006;4.720;2023-03-14T10:48:05;99798.94;;;7.38;100.00
18436;BME280;9346;52.006;4.720;2023-03-14T10:50:32;99791.50;;;7.44;100.00
18436;BME280;9346;52.006;4.720;2023-03-14T10:53:01;99807.09;;;7.48;100.00
18436;BME280;9346;52.006;4.720;2023-03-14T10:55:41;99805.16;;;7.54;100.00
18436;BME280;9346;52.006;4.720;2023-03-14T10:58:24;99816.94;;;7.59;100.00
18436;BME280;9346;52.006;4.720;2023-03-14T11:00:59;99829.81;;;7.59;100.00
18436;BME280;9346;52.006;4.720;2023-03-14T11:03:30;99839.69;;;7.60;100.00
18436;BME280;9346;52.006;4.720;2023-03-14T11:06:06;99843.53;;;7.59;100.00
18436;BME280;9346;52.006;4.720;2023-03-14T11:08:39;99852.31;;;7.56;100.00
18436;BME280;9346;52.006;4.720;2023-03-14T11:11:15;99851.75;;;7.59;100.00
18436;BME280;9346;52.006;4.720;2023-03-14T11:13:54;99863.78;;;7.63;100.00
18436;BME280;9346;52.006;4.720;2023-03-14T11:16:27;99875.28;;;7.75;100.00
18436;BME280;9346;52.006;4.720;2023-03-14T11:19:19;99887.03;;;7.80;100.00
18436;BME280;9346;52.006;4.720;2023-03-14T11:21:56;99900.19;;;7.83;100.00
18436;BME280;9346;52.006;4.720;2023-03-14T11:24:33;99908.94;;;7.85;100.00
18436;BME280;9346;52.006;4.720;2023-03-14T11:27:09;99905.63;;;7.88;100.00
18436;BME280;9346;52.006;4.720;2023-03-14T11:29:40;99920.69;;;7.96;100.00
18436;BME280;9346;52.006;4.720;2023-03-14T11:32:12;99925.91;;;7.92;100.00
18436;BME280;9346;52.006;4.720;2023-03-14T11:34:45;99946.72;;;7.98;100.00
18436;BME280;9346;52.006;4.720;2023-03-14T11:37:22;99943.97;;;8.08;100.00
18436;BME280;9346;52.006;4.720;2023-03-14T11:39:57;99955.50;;;8.05;100.00
18436;BME280;9346;52.006;4.720;2023-03-14T11:42:28;99969.50;;;8.04;100.00
18436;BME280;9346;52.006;4.720;2023-03-14T11:44:57;99971.09;;;8.10;100.00
18436;BME280;9346;52.006;4.720;2023-03-14T11:47:29;99970.03;;;8.11;100.00
18436;BME280;9346;52.006;4.720;2023-03-14T11:50:02;99984.03;;;8.09;100.00
18436;BME280;9346;52.006;4.720;2023-03-14T11:52:34;99990.31;;;8.10;100.00
18436;BME280;9346;52.006;4.720;2023-03-14T11:55:07;99976.31;;;8.11;100.00
18436;BME280;9346;52.006;4.720;2023-03-14T11:57:40;100010.06;;;8.12;100.00
18436;BME280;9346;52.006;4.720;2023-03-14T12:00:14;100013.09;;;8.05;100.00
18436;BME280;9346;52.006;4.720;2023-03-14T12:02:48;100013.91;;;8.06;100.00
18436;BME280;9346;52.006;4.720;2023-03-14T12:05:34;100020.50;;;8.05;100.00
18436;BME280;9346;52.006;4.720;2023-03-14T12:08:22;100026.81;;;8.05;100.00
18436;BME280;9346;52.006;4.720;2023-03-14T12:10:54;100028.19;;;8.08;100.00
18436;BME280;9346;52.006;4.720;2023-03-14T12:13:28;100033.34;;;8.14;100.00
18436;BME280;9346;52.006;4.720;2023-03-14T12:15:57;100041.06;;;8.12;100.00
18436;BME280;9346;52.006;4.720;2023-03-14T12:18:27;100046.00;;;8.10;100.00
18436;BME280;9346;52.006;4.720;2023-03-14T12:20:57;100048.72;;;8.10;100.00
18436;BME280;9346;52.006;4.720;2023-03-14T12:23:25;100058.34;;;8.08;100.00
18436;BME280;9346;52.006;4.720;2023-03-14T12:26:15;100050.66;;;8.15;100.00
18436;BME280;9346;52.006;4.720;2023-03-14T12:28:49;100064.38;;;8.20;100.00
18436;BME280;9346;52.006;4.720;2023-03-14T12:31:37;100076.69;;;8.17;100.00
18436;BME280;9346;52.006;4.720;2023-03-14T12:34:27;100087.13;;;8.15;100.00
18436;BME280;9346;52.006;4.720;2023-03-14T12:37:00;100082.47;;;8.06;100.00
18436;BME280;9346;52.006;4.720;2023-03-14T12:39:36;100084.94;;;7.97;100.00
18436;BME280;9346;52.006;4.720;2023-03-14T12:42:08;100098.38;;;7.99;100.00
18436;BME280;9346;52.006;4.720;2023-03-14T12:44:43;100084.69;;;8.04;100.00
18436;BME280;9346;52.006;4.720;2023-03-14T12:47:41;100089.34;;;8.18;100.00
18436;BME280;9346;52.006;4.720;2023-03-14T12:50:18;100106.88;;;8.27;100.00
18436;BME280;9346;52.006;4.720;2023-03-14T12:53:00;100099.75;;;8.26;100.00
18436;BME280;9346;52.006;4.720;2023-03-14T12:55:36;100114.53;;;8.20;100.00
18436;BME280;9346;52.006;4.720;2023-03-14T12:58:08;100124.72;;;8.15;100.00
18436;BME280;9346;52.006;4.720;2023-03-14T13:00:42;100132.66;;;8.11;100.00
18436;BME280;9346;52.006;4.720;2023-03-14T13:03:18;100132.13;;;8.09;100.00
18436;BME280;9346;52.006;4.720;2023-03-14T13:05:55;100133.50;;;8.12;100.00
18436;BME280;9346;52.006;4.720;2023-03-14T13:08:35;100150.75;;;8.17;100.00
18436;BME280;9346;52.006;4.720;2023-03-14T13:11:05;100164.75;;;8.16;100.00
18436;BME280;9346;52.006;4.720;2023-03-14T13:13:35;100176.56;;;8.16;100.00
18436;BME280;9346;52.006;4.720;2023-03-14T13:16:05;100182.59;;;8.13;100.00